createdAt,value
2022-11-09T00:00:52.451Z,75.81
2022-11-09T00:02:56.520Z,75.82
2022-11-09T00:04:59.156Z,75.83
2022-11-09T00:07:02.494Z,76.04
2022-11-09T00:09:08.154Z,75.74
2022-11-09T00:11:12.211Z,76.19
2022-11-09T00:13:14.864Z,76.14
2022-11-09T00:15:18.843Z,75.90
2022-11-09T00:17:21.440Z,76.19
2022-11-09T00:19:24.482Z,75.80
2022-11-09T00:21:27.156Z,76.09
2022-11-09T00:23:29.755Z,76.33
2022-11-09T00:25:32.419Z,75.90
2022-11-09T00:27:35.041Z,75.81
2022-11-09T00:29:40.306Z,75.78
2022-11-09T00:31:44.246Z,76.02
2022-11-09T00:33:49.126Z,75.82
2022-11-09T00:35:51.704Z,75.55
2022-11-09T00:37:55.267Z,75.37
2022-11-09T00:39:59.156Z,75.36
2022-11-09T00:42:01.727Z,75.30
2022-11-09T00:44:04.588Z,75.15
2022-11-09T00:46:07.452Z,75.26
2022-11-09T00:48:11.645Z,75.01
2022-11-09T00:50:14.229Z,75.29
2022-11-09T00:52:16.846Z,75.27
2022-11-09T00:54:19.441Z,75.21
2022-11-09T00:56:22.714Z,75.10
2022-11-09T00:58:26.122Z,75.02
2022-11-09T01:00:28.761Z,75.08
2022-11-09T01:02:31.348Z,75.16
2022-11-09T01:04:35.449Z,75.25
2022-11-09T01:06:38.078Z,75.30
2022-11-09T01:08:40.664Z,75.59
2022-11-09T01:10:44.506Z,75.53
2022-11-09T01:12:47.077Z,75.30
2022-11-09T01:14:49.680Z,75.49
2022-11-09T01:16:52.491Z,75.35
2022-11-09T01:18:56.397Z,75.12
2022-11-09T01:21:00.385Z,75.33
2022-11-09T01:23:02.970Z,75.31
2022-11-09T01:25:06.387Z,75.86
2022-11-09T01:27:09.033Z,75.57
2022-11-09T01:29:11.601Z,75.55
2022-11-09T01:31:16.061Z,75.52
2022-11-09T01:33:18.942Z,75.43
2022-11-09T01:35:21.743Z,75.78
2022-11-09T01:37:25.720Z,75.96
2022-11-09T01:39:28.300Z,75.79
2022-11-09T01:41:30.921Z,76.38
2022-11-09T01:43:33.871Z,76.15
2022-11-09T01:45:36.546Z,76.51
2022-11-09T01:47:39.159Z,76.36
2022-11-09T01:49:46.940Z,76.26
2022-11-09T01:51:54.922Z,76.66
2022-11-09T01:54:04.864Z,76.53
2022-11-09T01:56:11.323Z,76.33
2022-11-09T01:58:17.974Z,76.58
2022-11-09T02:00:21.290Z,76.39
2022-11-09T02:02:24.355Z,76.56
2022-11-09T02:04:32.014Z,76.20
2022-11-09T02:06:35.238Z,76.28
2022-11-09T02:08:38.408Z,76.42
2022-11-09T02:10:48.341Z,76.17
2022-11-09T02:12:51.076Z,76.34
2022-11-09T02:14:55.843Z,76.00
2022-11-09T02:16:58.478Z,76.04
2022-11-09T02:19:01.859Z,75.89
2022-11-09T02:21:06.625Z,76.12
2022-11-09T02:23:09.214Z,76.44
2022-11-09T02:25:14.934Z,76.49
2022-11-09T02:27:17.987Z,76.46
2022-11-09T02:29:24.719Z,76.54
2022-11-09T02:31:32.131Z,76.87
2022-11-09T02:33:43.664Z,76.73
2022-11-09T02:35:46.364Z,76.21
2022-11-09T02:37:51.626Z,75.76
2022-11-09T02:39:54.713Z,75.94
2022-11-09T02:42:03.101Z,75.75
2022-11-09T02:44:06.674Z,75.46
2022-11-09T02:46:09.296Z,75.79
2022-11-09T02:48:11.948Z,75.65
2022-11-09T02:50:14.532Z,75.86
2022-11-09T02:52:17.430Z,75.96
2022-11-09T02:54:21.453Z,76.09
2022-11-09T02:56:24.221Z,76.23
2022-11-09T02:58:26.775Z,76.09
2022-11-09T03:00:29.383Z,75.93
2022-11-09T03:02:32.018Z,75.39
2022-11-09T03:04:34.653Z,75.62
2022-11-09T03:06:37.455Z,75.43
2022-11-09T03:08:40.158Z,75.35
2022-11-09T03:10:44.146Z,75.49
2022-11-09T03:12:46.768Z,75.63
2022-11-09T03:14:49.339Z,75.90
2022-11-09T03:16:51.931Z,75.64
2022-11-09T03:18:54.813Z,74.83
2022-11-09T03:21:02.615Z,74.82
2022-11-09T03:23:05.245Z,74.59
2022-11-09T03:25:08.778Z,75.17
2022-11-09T03:27:12.860Z,75.28
2022-11-09T03:29:15.478Z,75.27
2022-11-09T03:31:18.083Z,75.43
2022-11-09T03:33:21.164Z,75.40
2022-11-09T03:35:23.955Z,74.82
2022-11-09T03:37:26.615Z,75.65
2022-11-09T03:39:29.332Z,76.06
2022-11-09T03:41:31.984Z,76.88
2022-11-09T03:43:35.921Z,76.71
2022-11-09T03:45:38.566Z,76.85
2022-11-09T03:47:41.725Z,77.28
2022-11-09T03:49:44.561Z,77.63
2022-11-09T03:51:47.151Z,78.10
2022-11-09T03:53:49.781Z,78.63
2022-11-09T03:55:52.389Z,79.22
2022-11-09T03:57:55.512Z,79.94
2022-11-09T04:00:01.827Z,80.42
2022-11-09T04:02:04.441Z,80.90
2022-11-09T04:04:07.058Z,81.42
2022-11-09T04:06:09.667Z,81.75
2022-11-09T04:08:12.330Z,82.03
2022-11-09T04:10:14.968Z,82.42
2022-11-09T04:12:17.583Z,82.61
2022-11-09T04:14:20.183Z,82.92
2022-11-09T04:16:24.173Z,83.02
2022-11-09T04:18:26.797Z,83.04
2022-11-09T04:20:31.127Z,83.50
2022-11-09T04:22:33.812Z,83.43
2022-11-09T04:24:36.409Z,83.60
2022-11-09T04:26:39.016Z,83.77
2022-11-09T04:28:41.575Z,83.73
2022-11-09T04:30:44.204Z,84.06
2022-11-09T04:32:48.153Z,84.41
2022-11-09T04:34:50.811Z,84.41
2022-11-09T04:36:53.460Z,84.33
2022-11-09T04:38:56.078Z,84.32
2022-11-09T04:41:01.484Z,84.65
2022-11-09T04:43:06.101Z,85.03
2022-11-09T04:45:09.306Z,85.48
2022-11-09T04:47:11.925Z,85.61
2022-11-09T04:49:15.899Z,85.52
2022-11-09T04:51:18.662Z,85.86
2022-11-09T04:53:21.685Z,86.13
2022-11-09T04:55:24.605Z,86.45
2022-11-09T04:57:27.201Z,86.82
2022-11-09T04:59:29.777Z,86.69
2022-11-09T05:01:32.458Z,86.53
2022-11-09T05:03:35.512Z,87.19
2022-11-09T05:05:44.082Z,87.34
2022-11-09T05:07:49.707Z,87.08
2022-11-09T05:09:52.319Z,87.01
2022-11-09T05:11:54.938Z,87.44
2022-11-09T05:13:57.513Z,87.52
2022-11-09T05:16:01.739Z,87.24
2022-11-09T05:18:06.736Z,87.59
2022-11-09T05:20:10.412Z,87.92
2022-11-09T05:22:34.090Z,87.77
2022-11-09T05:24:36.693Z,88.16
2022-11-09T05:26:43.203Z,88.45
2022-11-09T05:28:45.904Z,88.35
2022-11-09T05:30:48.511Z,88.77
2022-11-09T05:32:51.222Z,88.64
2022-11-09T05:34:53.818Z,88.88
2022-11-09T05:37:02.236Z,88.92
2022-11-09T05:39:07.447Z,88.99
2022-11-09T05:41:10.038Z,88.93
2022-11-09T05:43:12.656Z,89.39
2022-11-09T05:47:40.410Z,89.39
2022-11-09T05:49:45.811Z,89.46
2022-11-09T05:51:48.375Z,89.46
2022-11-09T05:53:50.982Z,89.58
2022-11-09T05:55:55.033Z,89.40
2022-11-09T05:57:57.689Z,89.64
2022-11-09T06:00:00.365Z,89.74
2022-11-09T06:02:03.185Z,89.65
2022-11-09T06:04:06.196Z,89.84
2022-11-09T06:06:09.664Z,89.68
2022-11-09T06:08:14.677Z,89.72
2022-11-09T06:10:17.697Z,90.07
2022-11-09T06:12:21.715Z,89.98
2022-11-09T06:14:24.318Z,90.41
2022-11-09T06:16:26.938Z,90.39
2022-11-09T06:18:30.823Z,90.21
2022-11-09T06:20:34.140Z,90.50
2022-11-09T06:22:36.795Z,90.41
2022-11-09T06:24:39.435Z,90.79
2022-11-09T06:26:42.096Z,90.81
2022-11-09T06:28:46.043Z,90.66
2022-11-09T06:30:48.649Z,90.56
2022-11-09T06:32:51.215Z,90.23
2022-11-09T06:34:53.833Z,90.78
2022-11-09T06:36:56.431Z,90.83
2022-11-09T06:38:59.034Z,90.83
2022-11-09T06:41:02.023Z,90.95
2022-11-09T06:43:05.145Z,90.93
2022-11-09T06:45:10.487Z,90.59
2022-11-09T06:47:13.080Z,90.67
2022-11-09T06:49:15.667Z,90.25
2022-11-09T06:51:18.324Z,90.26
2022-11-09T06:53:21.469Z,90.32
2022-11-09T06:55:24.370Z,90.91
2022-11-09T06:57:26.994Z,90.80
2022-11-09T06:59:29.808Z,91.08
2022-11-09T07:01:33.789Z,91.03
2022-11-09T07:03:36.412Z,91.04
2022-11-09T07:05:39.752Z,91.30
2022-11-09T07:07:42.395Z,91.32
2022-11-09T07:09:45.029Z,91.48
2022-11-09T07:11:49.708Z,91.58
2022-11-09T07:13:57.082Z,91.51
2022-11-09T07:16:00.195Z,91.39
2022-11-09T07:18:06.557Z,91.29
2022-11-09T07:20:10.429Z,91.30
2022-11-09T07:22:13.058Z,91.76
2022-11-09T07:24:15.655Z,91.80
2022-11-09T07:26:18.992Z,92.07
2022-11-09T07:28:21.619Z,92.04
2022-11-09T07:30:24.210Z,92.15
2022-11-09T07:32:53.751Z,92.19
2022-11-09T07:34:50.647Z,92.02
2022-11-09T07:36:54.828Z,91.81
2022-11-09T07:38:57.449Z,91.85
2022-11-09T07:41:01.098Z,92.04
2022-11-09T07:43:05.317Z,92.01
2022-11-09T07:45:08.809Z,91.83
2022-11-09T07:47:17.232Z,91.35
2022-11-09T07:49:20.866Z,90.34
2022-11-09T07:51:24.795Z,90.34
2022-11-09T07:53:27.659Z,89.72
2022-11-09T07:55:32.035Z,89.27
2022-11-09T07:57:34.606Z,89.25
2022-11-09T07:59:37.394Z,89.17
2022-11-09T08:01:40.043Z,89.07
2022-11-09T08:03:42.663Z,89.22
2022-11-09T08:05:45.572Z,89.29
2022-11-09T08:07:49.643Z,89.14
2022-11-09T08:09:52.209Z,89.25
2022-11-09T08:11:54.824Z,89.93
2022-11-09T08:13:57.563Z,89.40
2022-11-09T08:16:02.142Z,90.29
2022-11-09T08:18:06.683Z,89.84
2022-11-09T08:20:10.233Z,90.40
2022-11-09T08:22:12.852Z,90.63
2022-11-09T08:24:16.904Z,90.44
2022-11-09T08:26:19.653Z,90.45
2022-11-09T08:28:22.867Z,90.24
2022-11-09T08:30:26.118Z,90.57
2022-11-09T08:32:28.974Z,90.36
2022-11-09T08:34:31.587Z,90.36
2022-11-09T08:36:36.145Z,90.76
2022-11-09T08:38:39.326Z,91.03
2022-11-09T08:40:43.347Z,90.97
2022-11-09T08:42:46.359Z,91.44
2022-11-09T08:44:48.915Z,91.55
2022-11-09T08:46:51.526Z,91.62
2022-11-09T08:48:54.117Z,91.72
2022-11-09T08:50:59.119Z,92.33
2022-11-09T08:53:02.411Z,92.72
2022-11-09T08:55:08.646Z,92.44
2022-11-09T08:57:13.015Z,92.61
2022-11-09T08:59:15.578Z,92.58
2022-11-09T09:01:18.162Z,92.65
2022-11-09T09:03:20.857Z,92.42
2022-11-09T09:05:24.093Z,92.39
2022-11-09T09:07:26.777Z,92.82
2022-11-09T09:09:29.481Z,93.15
2022-11-09T09:11:32.152Z,92.81
2022-11-09T09:13:40.539Z,93.34
2022-11-09T09:15:45.818Z,93.36
2022-11-09T09:17:50.966Z,93.56
2022-11-09T09:19:53.813Z,93.55
2022-11-09T09:21:56.870Z,93.45
2022-11-09T09:23:59.493Z,93.42
2022-11-09T09:26:02.103Z,93.45
2022-11-09T09:28:04.931Z,93.91
2022-11-09T09:30:10.255Z,94.13
2022-11-09T09:32:12.958Z,94.13
2022-11-09T09:34:15.605Z,94.39
2022-11-09T09:36:19.997Z,94.19
2022-11-09T09:38:22.872Z,93.66
2022-11-09T09:40:30.827Z,93.97
2022-11-09T09:42:37.176Z,93.86
2022-11-09T09:44:44.396Z,94.05
2022-11-09T09:46:54.324Z,93.80
2022-11-09T09:49:02.307Z,93.75
2022-11-09T09:51:10.971Z,93.79
2022-11-09T09:53:26.563Z,93.97
2022-11-09T09:55:37.782Z,93.41
2022-11-09T09:57:42.418Z,93.81
2022-11-09T09:59:50.517Z,93.90
2022-11-09T10:01:57.335Z,93.94
2022-11-09T10:04:00.064Z,94.11
2022-11-09T10:06:13.995Z,94.07
2022-11-09T10:08:25.942Z,93.86
2022-11-09T10:10:44.397Z,93.86
2022-11-09T10:13:04.595Z,93.85
2022-11-09T10:15:22.280Z,93.93
2022-11-09T10:17:38.944Z,93.89
2022-11-09T10:19:55.028Z,93.83
2022-11-09T10:22:06.641Z,93.97
2022-11-09T10:24:23.364Z,94.28
2022-11-09T10:26:38.800Z,94.07
2022-11-09T10:29:13.830Z,94.10
2022-11-09T10:31:16.560Z,94.12
2022-11-09T10:33:21.876Z,94.30
2022-11-09T10:35:30.361Z,93.99
2022-11-09T10:37:38.120Z,94.04
2022-11-09T10:39:45.303Z,93.78
2022-11-09T10:41:48.117Z,93.43
2022-11-09T10:43:50.693Z,93.65
2022-11-09T10:46:04.685Z,93.43
2022-11-09T10:48:09.293Z,93.29
2022-11-09T10:50:23.778Z,93.07
2022-11-09T10:52:44.306Z,92.88
2022-11-09T10:54:49.723Z,92.14
2022-11-09T10:57:07.226Z,91.99
2022-11-09T10:59:37.448Z,90.89
2022-11-09T11:01:40.153Z,90.56
2022-11-09T11:03:44.890Z,90.71
2022-11-09T11:05:59.329Z,90.74
2022-11-09T11:08:25.472Z,90.77
2022-11-09T11:10:28.074Z,90.78
2022-11-09T11:12:30.677Z,90.69
2022-11-09T11:14:35.189Z,90.76
2022-11-09T11:16:39.482Z,90.61
2022-11-09T11:18:46.570Z,90.00
2022-11-09T11:21:06.460Z,90.32
2022-11-09T11:23:13.996Z,90.40
2022-11-09T11:25:20.612Z,90.32
2022-11-09T11:27:28.379Z,90.33
2022-11-09T11:29:41.757Z,90.18
2022-11-09T11:31:44.381Z,89.61
2022-11-09T11:33:47.580Z,89.73
2022-11-09T11:35:59.231Z,89.97
2022-11-09T11:38:15.364Z,89.99
2022-11-09T11:40:23.775Z,90.20
2022-11-09T11:42:37.923Z,90.19
2022-11-09T11:45:18.605Z,90.33
2022-11-09T11:47:26.862Z,90.47
2022-11-09T11:50:23.376Z,90.41
2022-11-09T11:52:37.561Z,90.61
2022-11-09T11:55:04.629Z,90.28
2022-11-09T11:57:27.858Z,90.38
2022-11-09T11:59:48.029Z,90.25
2022-11-09T12:02:09.038Z,90.31
2022-11-09T12:04:32.355Z,90.15
2022-11-09T12:06:58.072Z,90.15
2022-11-09T12:09:12.827Z,90.18
2022-11-09T12:11:29.004Z,90.31
2022-11-09T12:13:52.565Z,89.90
2022-11-09T12:16:04.632Z,89.95
2022-11-09T12:18:17.841Z,89.73
2022-11-09T12:20:28.255Z,89.49
2022-11-09T12:22:39.633Z,85.73
2022-11-09T12:24:54.640Z,84.57
2022-11-09T12:29:42.727Z,84.13
2022-11-09T12:31:55.631Z,84.03
2022-11-09T12:34:03.048Z,84.18
2022-11-09T12:36:13.498Z,84.23
2022-11-09T12:38:23.798Z,83.55
2022-11-09T12:40:30.988Z,84.00
2022-11-09T12:42:39.436Z,83.82
2022-11-09T12:44:47.534Z,83.06
2022-11-09T12:46:53.384Z,82.68
2022-11-09T12:48:59.436Z,80.66
2022-11-09T12:51:04.257Z,81.02
2022-11-09T12:53:07.939Z,80.87
2022-11-09T12:55:15.583Z,80.68
2022-11-09T12:57:23.937Z,77.82
2022-11-09T12:59:38.055Z,77.30
2022-11-09T13:01:49.672Z,75.96
2022-11-09T13:03:58.260Z,76.17
2022-11-09T13:06:13.759Z,76.47
2022-11-09T13:08:21.025Z,76.02
2022-11-09T13:10:28.035Z,76.54
2022-11-09T13:12:38.580Z,76.69
2022-11-09T13:14:42.069Z,77.12
2022-11-09T13:16:44.811Z,76.07
2022-11-09T13:18:51.287Z,76.38
2022-11-09T13:20:56.868Z,76.62
2022-11-09T13:23:02.189Z,76.97
2022-11-09T13:25:27.069Z,77.44
2022-11-09T13:27:43.507Z,78.10
2022-11-09T13:29:55.277Z,78.59
2022-11-09T13:32:33.555Z,78.70
2022-11-09T13:34:47.827Z,78.82
2022-11-09T13:37:23.091Z,78.82
2022-11-09T13:39:33.581Z,78.76
2022-11-09T13:41:43.968Z,78.69
2022-11-09T13:43:48.070Z,78.50
2022-11-09T13:45:52.671Z,78.23
2022-11-09T13:47:56.175Z,78.32
2022-11-09T13:49:58.948Z,78.05
2022-11-09T13:52:01.550Z,77.83
2022-11-09T13:54:05.326Z,78.12
2022-11-09T13:56:20.030Z,78.50
2022-11-09T13:58:29.770Z,79.02
2022-11-09T14:00:33.776Z,78.57
2022-11-09T14:02:36.398Z,78.86
2022-11-09T14:04:41.286Z,79.25
2022-11-09T14:06:44.061Z,79.62
2022-11-09T14:08:48.101Z,79.87
2022-11-09T14:11:09.967Z,80.13
2022-11-09T14:13:43.417Z,80.20
2022-11-09T14:15:54.927Z,80.29
2022-11-09T14:18:08.045Z,80.17
2022-11-09T14:20:21.919Z,80.24
2022-11-09T14:22:24.695Z,80.42
2022-11-09T14:24:30.856Z,80.74
2022-11-09T14:26:33.493Z,80.86
2022-11-09T14:28:37.252Z,80.85
2022-11-09T14:30:46.145Z,81.04
2022-11-09T14:32:54.037Z,81.04
2022-11-09T14:35:12.204Z,81.25
2022-11-09T14:37:15.709Z,81.30
2022-11-09T14:39:27.414Z,81.46
2022-11-09T14:41:31.064Z,81.63
2022-11-09T14:43:40.862Z,81.57
2022-11-09T14:45:49.921Z,81.79
2022-11-09T14:47:57.020Z,81.94
2022-11-09T14:50:00.191Z,82.23
2022-11-09T14:52:03.787Z,82.68
2022-11-09T14:54:10.047Z,83.12
2022-11-09T14:56:16.564Z,83.49
2022-11-09T14:58:20.962Z,83.96
2022-11-09T15:00:30.516Z,84.32
2022-11-09T15:02:37.333Z,84.54
2022-11-09T15:04:55.356Z,84.54
2022-11-09T15:07:01.132Z,84.74
2022-11-09T15:09:08.441Z,84.95
2022-11-09T15:11:11.186Z,85.29
2022-11-09T15:13:13.802Z,85.29
2022-11-09T15:15:20.857Z,85.53
2022-11-09T15:17:26.541Z,85.67
2022-11-09T15:19:31.614Z,85.92
2022-11-09T15:21:38.792Z,86.06
2022-11-09T15:23:43.255Z,86.07
2022-11-09T15:25:56.081Z,86.22
2022-11-09T15:28:03.489Z,86.79
2022-11-09T15:30:07.083Z,86.79
2022-11-09T15:32:19.514Z,86.95
2022-11-09T15:34:24.589Z,87.01
2022-11-09T15:36:31.399Z,87.23
2022-11-09T15:38:39.204Z,87.26
2022-11-09T15:40:41.884Z,87.37
2022-11-09T15:42:46.383Z,87.56
2022-11-09T15:44:53.312Z,87.92
2022-11-09T15:46:56.011Z,87.16
2022-11-09T15:49:03.403Z,87.38
2022-11-09T15:51:06.123Z,87.45
2022-11-09T15:53:10.441Z,87.19
2022-11-09T15:55:15.221Z,87.69
2022-11-09T15:57:19.974Z,88.37
2022-11-09T15:59:24.676Z,88.46
2022-11-09T16:01:27.780Z,88.75
2022-11-09T16:03:30.389Z,89.00
2022-11-09T16:05:33.044Z,89.45
2022-11-09T16:07:35.801Z,89.59
2022-11-09T16:09:40.530Z,90.14
2022-11-09T16:11:44.532Z,89.96
2022-11-09T16:13:47.116Z,90.02
2022-11-09T16:15:49.742Z,90.21
2022-11-09T16:17:52.611Z,90.54
2022-11-09T16:19:55.234Z,90.39
2022-11-09T16:21:58.502Z,90.50
2022-11-09T16:24:01.113Z,90.69
2022-11-09T16:26:08.430Z,90.90
2022-11-09T16:28:12.468Z,90.80
2022-11-09T16:30:15.427Z,91.25
2022-11-09T16:32:18.059Z,91.04
2022-11-09T16:34:21.146Z,91.16
2022-11-09T16:36:26.306Z,91.02
2022-11-09T16:38:31.340Z,91.10
2022-11-09T16:40:34.573Z,90.79
2022-11-09T16:42:38.074Z,90.24
2022-11-09T16:44:44.290Z,90.65
2022-11-09T16:46:48.771Z,90.92
2022-11-09T16:48:51.518Z,91.04
2022-11-09T16:50:54.451Z,90.86
2022-11-09T16:52:57.191Z,91.11
2022-11-09T16:54:59.794Z,90.67
2022-11-09T16:57:02.614Z,91.02
2022-11-09T16:59:05.273Z,90.62
2022-11-09T17:01:12.897Z,90.89
2022-11-09T17:03:16.081Z,91.07
2022-11-09T17:05:18.760Z,91.02
2022-11-09T17:07:21.927Z,90.04
2022-11-09T17:09:24.511Z,90.21
2022-11-09T17:11:27.138Z,90.13
2022-11-09T17:13:29.772Z,89.99
2022-11-09T17:15:32.408Z,90.02
2022-11-09T17:17:36.351Z,90.10
2022-11-09T17:19:38.985Z,89.57
2022-11-09T17:21:41.624Z,90.10
2022-11-09T17:23:44.656Z,90.21
2022-11-09T17:25:55.545Z,89.55
2022-11-09T17:27:58.134Z,89.64
2022-11-09T17:30:00.683Z,89.31
2022-11-09T17:32:03.306Z,89.34
2022-11-09T17:34:07.388Z,89.20
2022-11-09T17:36:12.278Z,89.43
2022-11-09T17:38:15.151Z,90.06
2022-11-09T17:40:19.930Z,89.89
2022-11-09T17:42:22.575Z,90.23
2022-11-09T17:44:25.174Z,89.84
2022-11-09T17:46:27.804Z,89.30
2022-11-09T17:48:30.399Z,89.58
2022-11-09T17:50:34.319Z,89.91
2022-11-09T17:52:36.970Z,89.94
2022-11-09T17:54:39.579Z,89.85
2022-11-09T17:56:42.236Z,89.48
2022-11-09T17:58:45.717Z,89.78
2022-11-09T18:00:48.558Z,90.04
2022-11-09T18:02:55.430Z,90.18
2022-11-09T18:04:58.151Z,89.83
2022-11-09T18:07:02.232Z,89.64
2022-11-09T18:11:29.904Z,89.63
2022-11-09T18:13:32.866Z,89.38
2022-11-09T18:15:37.731Z,89.51
2022-11-09T18:17:40.369Z,89.75
2022-11-09T18:19:42.935Z,89.81
2022-11-09T18:21:45.918Z,89.71
2022-11-09T18:23:49.942Z,90.02
2022-11-09T18:25:58.856Z,89.93
2022-11-09T18:28:01.428Z,89.73
2022-11-09T18:30:04.588Z,89.53
2022-11-09T18:32:07.196Z,89.48
2022-11-09T18:34:11.298Z,89.18
2022-11-09T18:36:15.998Z,89.03
2022-11-09T18:38:20.211Z,88.78
2022-11-09T18:40:24.461Z,88.31
2022-11-09T18:42:27.117Z,88.29
2022-11-09T18:44:29.711Z,88.40
2022-11-09T18:46:35.362Z,88.46
2022-11-09T18:48:38.485Z,88.74
2022-11-09T18:50:41.044Z,88.74
2022-11-09T18:52:43.716Z,88.65
2022-11-09T18:54:46.432Z,88.62
2022-11-09T18:56:50.436Z,88.65
2022-11-09T18:58:54.671Z,88.54
2022-11-09T19:01:01.480Z,88.82
2022-11-09T19:03:04.551Z,88.78
2022-11-09T19:05:08.340Z,88.86
2022-11-09T19:07:10.936Z,88.99
2022-11-09T19:09:29.842Z,88.91
2022-11-09T19:11:33.272Z,88.73
2022-11-09T19:13:37.201Z,88.79
2022-11-09T19:15:43.306Z,89.00
2022-11-09T19:17:45.935Z,89.25
2022-11-09T19:19:48.582Z,89.20
2022-11-09T19:21:53.481Z,89.23
2022-11-09T19:23:56.667Z,88.92
2022-11-09T19:26:01.973Z,89.10
2022-11-09T19:28:04.677Z,89.31
2022-11-09T19:30:10.135Z,89.45
2022-11-09T19:32:12.890Z,89.43
2022-11-09T19:34:17.655Z,89.57
2022-11-09T19:36:30.060Z,89.56
2022-11-09T19:38:33.115Z,89.82
2022-11-09T19:40:39.842Z,90.02
2022-11-09T19:42:42.870Z,90.10
2022-11-09T19:44:45.704Z,90.11
2022-11-09T19:46:49.646Z,90.10
2022-11-09T19:48:52.276Z,89.89
2022-11-09T19:50:54.847Z,90.15
2022-11-09T19:52:57.509Z,89.96
2022-11-09T19:55:00.127Z,90.06
2022-11-09T19:57:02.740Z,89.71
2022-11-09T19:59:05.787Z,90.09
2022-11-09T20:01:11.107Z,90.06
2022-11-09T20:03:15.111Z,90.25
2022-11-09T20:05:17.724Z,90.23
2022-11-09T20:07:20.521Z,90.00
2022-11-09T20:09:23.099Z,90.35
2022-11-09T20:11:45.003Z,90.19
2022-11-09T20:13:47.561Z,89.68
2022-11-09T20:15:50.250Z,89.61
2022-11-09T20:17:52.842Z,89.31
2022-11-09T20:19:59.539Z,89.16
2022-11-09T20:22:02.147Z,88.97
2022-11-09T20:24:06.364Z,89.03
2022-11-09T20:26:11.721Z,89.41
2022-11-09T20:28:14.406Z,89.48
2022-11-09T20:30:17.188Z,89.09
2022-11-09T20:32:21.663Z,88.97
2022-11-09T20:34:29.558Z,89.18
2022-11-09T20:36:34.696Z,89.02
2022-11-09T20:38:37.352Z,88.77
2022-11-09T20:40:39.918Z,88.84
2022-11-09T20:42:42.597Z,88.61
2022-11-09T20:44:45.262Z,88.85
2022-11-09T20:46:47.901Z,88.99
2022-11-09T20:48:54.486Z,88.99
2022-11-09T20:51:03.133Z,89.04
2022-11-09T20:53:07.227Z,88.94
2022-11-09T20:55:10.682Z,89.26
2022-11-09T20:57:13.704Z,89.36
2022-11-09T20:59:16.361Z,89.47
2022-11-09T21:01:20.854Z,89.88
2022-11-09T21:03:25.525Z,88.96
2022-11-09T21:05:28.107Z,89.36
2022-11-09T21:07:30.676Z,89.22
2022-11-09T21:09:34.741Z,89.41
2022-11-09T21:11:57.408Z,89.40
2022-11-09T21:14:00.009Z,89.48
2022-11-09T21:16:07.069Z,89.19
2022-11-09T21:18:09.755Z,89.02
2022-11-09T21:20:13.108Z,89.43
2022-11-09T21:22:15.857Z,89.54
2022-11-09T21:24:36.165Z,89.74
2022-11-09T21:26:57.393Z,89.36
2022-11-09T21:29:17.772Z,89.72
2022-11-09T21:31:20.450Z,89.52
2022-11-09T21:33:23.058Z,89.75
2022-11-09T21:35:26.338Z,89.71
2022-11-09T21:37:29.009Z,89.56
2022-11-09T21:39:31.627Z,89.64
2022-11-09T21:41:40.316Z,89.61
2022-11-09T21:43:44.260Z,89.92
2022-11-09T21:45:50.719Z,89.97
2022-11-09T21:47:55.318Z,89.84
2022-11-09T21:49:57.890Z,90.05
2022-11-09T21:52:01.135Z,90.09
2022-11-09T21:54:04.832Z,90.38
2022-11-09T21:56:08.307Z,90.08
2022-11-09T21:58:10.885Z,90.16
2022-11-09T22:00:17.098Z,90.14
2022-11-09T22:02:19.695Z,90.16
2022-11-09T22:04:22.279Z,89.98
2022-11-09T22:06:25.609Z,89.98
2022-11-09T22:08:28.430Z,90.09
2022-11-09T22:10:31.089Z,89.91
2022-11-09T22:12:51.162Z,88.68
2022-11-09T22:15:11.791Z,88.86
2022-11-09T22:17:15.762Z,86.41
2022-11-09T22:19:35.862Z,86.52
2022-11-09T22:21:38.911Z,86.13
2022-11-09T22:23:41.702Z,84.67
2022-11-09T22:25:47.914Z,84.85
2022-11-09T22:27:50.762Z,85.52
2022-11-09T22:29:53.352Z,86.03
2022-11-09T22:31:56.657Z,86.60
2022-11-09T22:34:00.675Z,86.60
2022-11-09T22:36:06.028Z,86.71
2022-11-09T22:38:08.839Z,87.02
2022-11-09T22:40:12.039Z,86.93
2022-11-09T22:42:14.779Z,87.41
2022-11-09T22:44:18.015Z,87.24
2022-11-09T22:46:20.715Z,87.48
2022-11-09T22:48:23.292Z,87.97
2022-11-09T22:50:27.216Z,88.41
2022-11-09T22:52:29.853Z,88.33
2022-11-09T22:54:32.514Z,88.51
2022-11-09T22:56:35.214Z,88.34
2022-11-09T22:58:37.896Z,88.64
2022-11-09T23:00:43.541Z,88.64
2022-11-09T23:02:46.128Z,88.99
2022-11-09T23:04:48.760Z,88.51
2022-11-09T23:06:52.846Z,88.80
2022-11-09T23:08:55.636Z,89.22
2022-11-09T23:10:58.784Z,88.93
2022-11-09T23:13:02.319Z,88.98
2022-11-09T23:15:05.520Z,88.70
2022-11-09T23:17:28.210Z,88.96
2022-11-09T23:19:29.907Z,89.24
2022-11-09T23:21:33.488Z,89.20
2022-11-09T23:23:37.848Z,88.99
2022-11-09T23:25:54.548Z,88.98
2022-11-09T23:27:57.477Z,88.94
2022-11-09T23:30:00.145Z,89.06
2022-11-09T23:32:02.711Z,89.12
2022-11-09T23:34:09.862Z,88.96
2022-11-09T23:36:12.885Z,89.09
2022-11-09T23:38:15.479Z,89.13
2022-11-09T23:40:19.787Z,89.28
2022-11-09T23:42:22.418Z,89.29
2022-11-09T23:44:25.025Z,89.58
2022-11-09T23:46:27.631Z,89.39
2022-11-09T23:48:30.402Z,89.02
2022-11-09T23:50:33.552Z,89.16
2022-11-09T23:52:36.237Z,89.03
2022-11-09T23:54:39.030Z,88.48
2022-11-09T23:56:42.976Z,88.49
2022-11-09T23:58:50.402Z,88.08
